Time;durP1;ratioP1;P1;durP2;ratioP2;P2;SDS_P1;SDS_P2;PMS_P1;PMS_P2;Temp;Humidity;BMP_temperature;BMP_pressure;BME280_temperature;BME280_humidity;BME280_pressure;Samples;Min_cycle;Max_cycle;Signal;HPM_P1;HPM_P2
2024/03/10 19:52:24;;;;;;;17.30;11.30;;;;;;;12.46;58.75;99007.44;5107989;22;415037;-93
2024/03/10 19:54:49;;;;;;;16.83;10.43;;;;;;;12.46;58.58;99007.44;4994777;23;20086;-94
2024/03/10 19:57:15;;;;;;;20.63;10.90;;;;;;;12.49;58.36;99015.06;5102077;23;20023;-91
2024/03/10 19:59:45;;;;;;;18.45;10.50;;;;;;;12.50;58.45;99010.66;4986859;28;20037;-93
2024/03/10 20:04:46;;;;;;;15.65;10.07;;;;;;;12.47;58.40;99016.13;5274027;23;20042;-93
2024/03/10 20:07:12;;;;;;;18.40;10.52;;;;;;;12.39;58.21;99006.25;4980773;28;20030;-91
2024/03/10 20:09:38;;;;;;;18.42;10.27;;;;;;;12.49;58.30;99016.81;4947998;28;20030;-91
2024/03/10 20:12:06;;;;;;;14.05;9.43;;;;;;;12.41;58.29;99012.22;4979725;28;20026;-88
2024/03/10 20:14:33;;;;;;;15.98;10.27;;;;;;;12.40;57.98;99012.34;4942913;28;20383;-93
2024/03/10 20:16:59;;;;;;;14.93;9.20;;;;;;;12.50;58.11;99034.22;4975682;28;20182;-86
2024/03/10 20:19:25;;;;;;;10.55;7.13;;;;;;;12.64;66.62;99030.50;4944349;28;20030;-88
2024/03/10 20:21:51;;;;;;;10.90;7.38;;;;;;;12.63;64.28;99034.06;4992958;28;20399;-80
2024/03/10 20:24:17;;;;;;;11.32;7.10;;;;;;;12.60;64.64;99027.31;4975509;28;20037;-85
2024/03/10 20:26:42;;;;;;;11.35;7.57;;;;;;;12.61;63.68;99022.88;4956370;28;20479;-87
2024/03/10 20:29:07;;;;;;;16.85;8.00;;;;;;;12.57;63.13;99016.22;4939409;28;20035;-86
2024/03/10 20:31:33;;;;;;;13.32;7.43;;;;;;;12.51;62.54;99004.47;4938516;28;20073;-88
2024/03/10 20:34:00;;;;;;;15.43;7.40;;;;;;;12.55;62.29;99016.34;4954912;28;20414;-86
2024/03/10 20:36:25;;;;;;;11.82;8.13;;;;;;;12.51;61.88;99007.09;4955572;28;20042;-87
2024/03/10 20:38:51;;;;;;;10.80;7.07;;;;;;;12.51;61.64;99009.69;4956170;28;20066;-88
2024/03/10 20:41:18;;;;;;;12.70;8.20;;;;;;;12.49;61.25;99003.75;4938182;28;20047;-83
2024/03/10 20:43:45;;;;;;;11.23;7.60;;;;;;;12.56;66.91;99012.78;4939171;28;20035;-80
2024/03/10 20:46:13;;;;;;;13.20;7.97;;;;;;;12.49;64.60;99007.22;4954831;28;20462;-81
2024/03/10 20:48:38;;;;;;;13.20;8.00;;;;;;;12.52;64.32;99019.19;4938629;28;20038;-81
2024/03/10 20:51:04;;;;;;;11.93;8.30;;;;;;;12.48;64.16;99016.00;4950163;28;20084;-81
2024/03/10 20:53:29;;;;;;;14.70;8.75;;;;;;;12.46;63.88;99017.06;4938163;28;20039;-81
2024/03/10 20:55:55;;;;;;;14.45;8.00;;;;;;;12.44;63.50;99013.75;4940565;28;20041;-81
2024/03/10 20:58:21;;;;;;;14.88;8.45;;;;;;;12.41;63.40;99017.47;4956718;28;20057;-82
2024/03/10 21:00:47;;;;;;;11.50;8.18;;;;;;;12.40;63.14;99012.34;4974646;28;20031;-84
2024/03/10 21:03:13;;;;;;;14.45;8.43;;;;;;;12.34;62.86;99008.41;4957509;28;20042;-83
2024/03/10 21:05:40;;;;;;;12.35;8.30;;;;;;;12.36;62.87;99024.81;4973889;28;20477;-80
2024/03/10 21:08:06;;;;;;;13.13;8.13;;;;;;;12.35;62.94;99015.34;4973086;28;20507;-79
2024/03/10 21:10:31;;;;;;;14.38;8.63;;;;;;;12.33;62.75;99025.06;4936063;28;20051;-83
2024/03/10 21:12:57;;;;;;;15.20;8.30;;;;;;;12.23;62.73;99006.66;4938426;28;20506;-84
2024/03/10 21:15:23;;;;;;;15.35;9.00;;;;;;;12.23;62.66;99011.88;4941492;28;20030;-79
2024/03/10 21:17:52;;;;;;;14.35;9.10;;;;;;;12.28;62.18;99029.84;4959255;28;20104;-80
2024/03/10 21:20:22;;;;;;;13.27;8.45;;;;;;;12.26;62.33;99023.91;4975123;28;20410;-79
2024/03/10 21:22:49;;;;;;;13.20;8.18;;;;;;;12.24;62.35;99028.41;4959782;28;20053;-79
2024/03/10 21:25:15;;;;;;;11.48;8.07;;;;;;;12.21;62.42;99036.53;4959135;28;20026;-80
2024/03/10 21:27:43;;;;;;;14.05;8.68;;;;;;;12.20;62.16;99040.91;4957733;28;20042;-79
2024/03/10 21:30:12;;;;;;;15.25;8.43;;;;;;;12.15;62.31;99023.91;4958996;28;20478;-80
2024/03/10 21:32:44;;;;;;;12.65;8.65;;;;;;;12.11;62.33;99042.47;4943266;28;20028;-78
2024/03/10 21:35:10;;;;;;;15.25;9.40;;;;;;;12.10;62.31;99034.75;4943320;28;20030;-79
2024/03/10 21:37:39;;;;;;;12.18;7.95;;;;;;;12.05;62.17;99027.25;4942838;28;20387;-79
2024/03/10 21:40:09;;;;;;;18.58;9.75;;;;;;;12.10;62.27;99039.97;4959325;28;20031;-79
2024/03/10 21:42:38;;;;;;;11.68;7.97;;;;;;;12.08;62.11;99042.72;4961904;28;20133;-79
2024/03/10 21:45:05;;;;;;;13.60;8.40;;;;;;;12.01;62.26;99022.38;4946797;28;20034;-79
2024/03/10 21:47:31;;;;;;;10.98;7.85;;;;;;;12.06;61.90;99039.38;4978512;28;20030;-79
2024/03/10 21:49:56;;;;;;;11.75;7.88;;;;;;;12.04;62.17;99040.44;4962064;28;20061;-79
2024/03/10 21:52:22;;;;;;;13.77;8.20;;;;;;;12.03;62.32;99046.63;4946140;28;20512;-80
2024/03/10 21:54:47;;;;;;;14.90;8.38;;;;;;;12.02;62.07;99052.78;4946123;28;20038;-80
2024/03/10 21:57:13;;;;;;;12.55;8.50;;;;;;;12.00;62.15;99052.09;4978457;28;20030;-79
2024/03/10 21:59:39;;;;;;;14.23;8.55;;;;;;;12.00;61.96;99045.09;4962336;28;20037;-79
2024/03/10 22:02:07;;;;;;;14.23;8.40;;;;;;;12.01;62.20;99049.34;4978171;28;20046;-78
2024/03/10 22:04:33;;;;;;;14.30;8.32;;;;;;;11.92;61.80;99029.13;4958655;28;20047;-78
2024/03/10 22:06:58;;;;;;;14.38;8.18;;;;;;;11.99;61.88;99040.81;4943161;28;20121;-78
2024/03/10 22:09:24;;;;;;;13.23;8.40;;;;;;;11.92;62.12;99035.22;4958854;28;20438;-80
2024/03/10 22:11:50;;;;;;;12.68;8.40;;;;;;;11.94;61.87;99035.09;4942651;28;20498;-78
2024/03/10 22:14:16;;;;;;;15.48;9.32;;;;;;;11.92;61.67;99034.38;4958742;28;20400;-79
2024/03/10 22:16:42;;;;;;;12.55;8.10;;;;;;;11.92;61.79;99034.38;4958749;28;20030;-78
2024/03/10 22:19:10;;;;;;;12.60;7.97;;;;;;;11.94;62.01;99032.50;4942718;28;20047;-78
2024/03/10 22:21:36;;;;;;;11.37;8.33;;;;;;;11.90;62.07;99037.06;4958994;28;20038;-79
2024/03/10 22:24:02;;;;;;;14.57;9.15;;;;;;;11.88;62.15;99028.50;4958727;28;20022;-78
2024/03/10 22:26:27;;;;;;;13.13;9.23;;;;;;;11.86;61.92;99026.97;4974225;28;20039;-79
2024/03/10 22:28:53;;;;;;;15.57;8.38;;;;;;;11.84;61.71;99031.47;4974128;28;20035;-78
2024/03/10 22:31:19;;;;;;;12.88;8.60;;;;;;;11.85;62.07;99033.16;4974577;28;20038;-77
2024/03/10 22:33:44;;;;;;;13.23;8.55;;;;;;;11.80;61.87;99017.81;4942207;28;20050;-78
2024/03/10 22:36:10;;;;;;;11.45;8.10;;;;;;;11.83;61.79;99030.66;4958677;28;20038;-80
2024/03/10 22:38:35;;;;;;;15.15;9.25;;;;;;;11.81;62.02;99029.09;4958390;28;20093;-78
2024/03/10 22:41:01;;;;;;;13.52;8.75;;;;;;;11.81;61.63;99034.34;4974609;28;20403;-78
2024/03/10 22:43:27;;;;;;;12.80;8.05;;;;;;;11.78;62.09;99030.19;4958246;28;20553;-79
2024/03/10 22:45:54;;;;;;;12.85;8.70;;;;;;;11.78;62.21;99035.41;4942905;28;20406;-79
2024/03/10 22:48:21;;;;;;;13.90;8.48;;;;;;;11.79;62.06;99041.47;4942121;28;20023;-78
2024/03/10 22:50:48;;;;;;;16.27;8.35;;;;;;;11.76;62.10;99045.16;4958488;28;20429;-78
2024/03/10 22:53:13;;;;;;;12.95;8.48;;;;;;;11.72;61.76;99030.66;4957815;28;20516;-78
2024/03/10 22:55:40;;;;;;;13.65;8.57;;;;;;;11.71;61.66;99034.22;4973875;28;20042;-79
2024/03/10 22:58:05;;;;;;;11.70;8.57;;;;;;;11.73;61.84;99037.53;4974398;28;20034;-79
2024/03/10 23:00:36;;;;;;;16.40;8.38;;;;;;;11.74;61.83;99039.22;4974103;28;20463;-78
2024/03/10 23:03:01;;;;;;;13.40;8.07;;;;;;;11.73;61.68;99034.91;4974107;28;20034;-79
2024/03/10 23:05:27;;;;;;;11.88;8.10;;;;;;;11.71;61.81;99024.56;4957921;28;20134;-79
2024/03/10 23:07:58;;;;;;;14.20;8.45;;;;;;;11.71;62.07;99026.38;4957751;28;20399;-79
2024/03/10 23:10:25;;;;;;;13.25;8.65;;;;;;;11.66;61.99;99018.03;4942876;28;20031;-79
2024/03/10 23:12:51;;;;;;;13.65;8.40;;;;;;;11.65;62.01;99022.41;4941890;28;20562;-79
2024/03/10 23:15:17;;;;;;;14.15;8.32;;;;;;;11.68;61.95;99029.22;4957652;28;20026;-80
2024/03/10 23:17:42;;;;;;;16.00;9.32;;;;;;;11.64;61.74;99026.00;4973665;28;20562;-78
2024/03/10 23:20:12;;;;;;;12.55;8.68;;;;;;;11.65;61.64;99027.66;4957873;28;20122;-79
2024/03/10 23:22:38;;;;;;;15.20;8.98;;;;;;;11.66;61.92;99025.88;4942754;28;20023;-77
2024/03/10 23:25:04;;;;;;;14.90;9.25;;;;;;;11.64;61.91;99028.63;4973018;28;20054;-79
2024/03/10 23:27:30;;;;;;;12.25;8.90;;;;;;;11.62;61.57;99032.28;4957532;28;20110;-79
2024/03/10 23:29:56;;;;;;;12.73;8.57;;;;;;;11.57;61.68;99020.41;4941406;28;20038;-79
2024/03/10 23:32:24;;;;;;;12.73;8.75;;;;;;;11.56;61.71;99018.75;4940964;28;20145;-77
2024/03/10 23:34:50;;;;;;;13.48;8.60;;;;;;;11.61;61.87;99026.22;4973245;28;20089;-76
2024/03/10 23:37:17;;;;;;;17.63;10.05;;;;;;;11.56;61.86;99020.53;4940657;28;20066;-79
2024/03/10 23:39:43;;;;;;;12.20;8.40;;;;;;;11.61;62.10;99028.00;4957413;28;20027;-78
2024/03/10 23:42:09;;;;;;;15.48;9.10;;;;;;;11.56;61.97;99026.59;4957174;28;20038;-78
2024/03/10 23:44:36;;;;;;;14.10;8.50;;;;;;;11.62;61.96;99024.44;4957211;28;20035;-78
2024/03/10 23:47:03;;;;;;;13.38;9.18;;;;;;;11.63;61.88;99018.28;4973027;28;20114;-78
2024/03/10 23:49:32;;;;;;;14.10;8.60;;;;;;;11.63;61.79;99015.66;4956773;28;20068;-76
2024/03/10 23:51:58;;;;;;;13.07;8.63;;;;;;;11.59;61.97;99010.66;4973221;28;20511;-76
2024/03/10 23:54:23;;;;;;;15.43;9.27;;;;;;;11.63;61.56;99021.72;4956798;28;20081;-77
2024/03/10 23:56:50;;;;;;;13.25;9.40;;;;;;;11.62;61.95;99012.19;4956753;28;20035;-77
2024/03/10 23:59:16;;;;;;;13.57;9.50;;;;;;;11.64;61.99;99014.69;4956716;28;20419;-76
